Rousseau, South Dakota
Current Conditions -  °F | °C
As of 9:53 AM on Monday 22 Dec 2014 (Local Time) from KPIR Reporting Station
Overcast Overcast  
Wind Chill: 28°   Ceiling: 1700
Heat Index: 37°   Visibility: 10mi
Dew Point: 34°   Wind: 15mph
Humidity: 89%   Direction: 310°NW
Pressure: 29.46"   Gusts: NA
Location:  44.3693°N, 100.04°W
Report Text: KPIR 221553Z AUTO 31013KT 10SM BKN017 OVC023 03/01 A2946 RMK AO2 SLP990 T00280011
Loading
Personal Weather Stations






























Interactive Weather Map New forecast layout! Learn more

10-Day Weather Forecast

Advertisements
Track Severe Weather on mobile